Portada
METAR-TAF:

METAR-TAF

Aeroports :

Townsville, Austràlia

latitud: 19-15S, longitud: 146-45E, altitud: 6 m

Observació

L'informe es va fer fa 25 minuts, a les 16:30 UTC
Vent 4 kt del Nord/Nord-Oest
Temperatura 24°C
Humitat 89%
Pressió 1013 hPa
Visibilitat 10 km o més
Cel cobert a una alçada de 2800 ft

METAR: YBTL 151630Z AUTO 34004KT 9999 // OVC028 24/22 Q1013

Hora: 02:55 (16:55 UTC)

Pronòstic

L'informe es va fer fa 5 hores i 30 minuts, a les 11:25 UTC
Pronòstic vàlid del 15 a les 12 UTC al 16 a les 12 UTC
Vent 8 kt del Nord/Nord-Est
Visibilitat 10 km o més
Escasses núvols a una alçada de 1500 ft
Núvols disperses a una alçada de 2500 ft
A partir de les 16 a les 0000 UTC
Vent 14 kt del Nord/Nord-Est
Visibilitat 10 km o més
Escasses núvols a una alçada de 2500 ft
Temporalment
l' 15 a les 12 UTC al 15 a les 22 UTC
Visibilitat 10 km o més
Cel ennuvolat a una alçada de 1500 ft

TAF: YBTL 151125Z 1512/1612 02008KT 9999 FEW015 SCT025 FM160000 03014KT 9999 FEW025 TEMPO 1512/1522 9999 NSW BKN015

Observacions i pronòstics meteorològics de més de 4000 aeroports (METAR i TAF).

Les estacions disponibles són els punts grocs i vermells al mapa.

Posi el ratolí al punt desitjat per veure el nom de l'estació.

Feu clic per veure les observacions i els pronòstics meteorològics.

Per canviar el mapa: feu clic els botons verds amb una creu de color negre per apropar; al botó verd amb un guió per allunyar la imatge; o en les fletxes verdes per a mapes adjacents.


METAR-TAF: